Hightower, Alabama
Current Conditions -  °F | °C
As of 2:53 AM on Monday 24 Nov 2014 (Local Time) from KANB Reporting Station
Few Clouds Few Clouds  
Wind Chill: 64°   Ceiling: Unl
Heat Index: 64°   Visibility: 10mi
Dew Point: 58°   Wind: 14mph
Humidity: 80%   Direction: 220°SW
Pressure: 29.71"   Gusts: 20mph
Location:  33.4631°N, 85.3362°W
Report Text: KANB 240853Z AUTO 22012G17KT 10SM FEW022 18/14 A2971 RMK AO2 SLP058 T01780144 50002 $
Loading
Personal Weather Stations






























Interactive Weather Map New forecast layout! Learn more

10-Day Weather Forecast

Advertisements
Track Severe Weather on mobile